»·PEaware :: N235B KBUR-KLAS

N235B :: KBUR-KLAS

FLIGHT INFORMATION

Flight Status: Arrived
Operator: Privately registered:
United States
More flights under this callsign
Pilot: Jason D. (29273)
Aircraft: ECLIPSE 500
(EA50)
More flights by this aircraft type
Origin: KBUR Bob Hope-Burbank
United States
Destination: KLAS McCarran Intl
United States
More flights between these airports :: More routes between these airports
Route: +SLAPP1 MISEN KEPEC6
File this flight plan on PilotEdge
Remarks:
Altitude:
(Current/Filed)
23,000ft
Speed:
(Current/Filed)
250kts
Departed: 17-Aug-20 04:56 PM
Arrived: 17-Aug-20 05:55 PM
Distance/Time
Traveled:
193nm/0:59
Distance/Time
To Go:
Arrived

Flight Plot

Page will automatically refresh every two minutes.

Flight plan parsing failed; only flown route is shown


Map Options




Map Legend


Flown Route
Filed Route
Departure Airport
Arrival Airport
Navaid (VOR, NDB)
Fix

Horizontal Profiles

Position Reports

Time Latitude Longitude Heading Altitude Ground
Speed
17-Aug-20 16:33 34.200208 -118.358847 280 720ft 0kts
17-Aug-20 16:34 34.200208 -118.358847 280 720ft 0kts
17-Aug-20 16:35 34.200208 -118.358847 280 720ft 0kts
17-Aug-20 16:36 34.200208 -118.358847 280 720ft 0kts
17-Aug-20 16:37 34.200208 -118.358847 280 720ft 0kts
17-Aug-20 16:38 34.200208 -118.358847 280 720ft 0kts
17-Aug-20 16:39 34.200208 -118.358847 280 720ft 0kts
17-Aug-20 16:40 34.200208 -118.358847 280 720ft 0kts
17-Aug-20 16:41 34.200208 -118.358847 280 720ft 0kts
17-Aug-20 16:42 34.200208 -118.358847 280 720ft 0kts
17-Aug-20 16:43 34.200208 -118.358847 280 720ft 0kts
17-Aug-20 16:44 34.200208 -118.358847 280 720ft 0kts
17-Aug-20 16:45 34.200208 -118.358847 280 720ft 0kts
17-Aug-20 16:46 34.200208 -118.358847 280 720ft 0kts
17-Aug-20 16:47 34.200208 -118.358847 280 720ft 0kts
17-Aug-20 16:48 34.200288 -118.359097 309 721ft 9kts
17-Aug-20 16:49 34.202653 -118.359487 61 731ft 11kts
17-Aug-20 16:50 34.205212 -118.359648 348 738ft 22kts
17-Aug-20 16:51 34.208900 -118.360674 347 754ft 8kts
17-Aug-20 16:52 34.211522 -118.361238 36 766ft 0kts
17-Aug-20 16:53 34.211522 -118.361238 36 766ft 0kts
17-Aug-20 16:54 34.211525 -118.361236 36 766ft 1kts
17-Aug-20 16:55 34.192861 -118.355069 169 960ft 150kts
17-Aug-20 16:56 34.155366 -118.345311 168 3259ft 157kts
17-Aug-20 16:57 34.102443 -118.352428 221 4060ft 273kts
17-Aug-20 16:58 34.046020 -118.414720 221 4045ft 262kts
17-Aug-20 16:59 33.991418 -118.474265 221 4046ft 263kts
17-Aug-20 17:00 33.950274 -118.541895 279 4041ft 265kts
17-Aug-20 17:01 34.015734 -118.570280 1 6617ft 286kts
17-Aug-20 17:02 34.095964 -118.568570 1 8815ft 293kts
17-Aug-20 17:03 34.178670 -118.567421 1 10694ft 302kts
17-Aug-20 17:04 34.263508 -118.562239 25 12275ft 309kts
17-Aug-20 17:05 34.331709 -118.498693 39 13708ft 313kts
17-Aug-20 17:06 34.397130 -118.427873 47 15000ft 318kts
17-Aug-20 17:07 34.458757 -118.349541 47 16134ft 324kts
17-Aug-20 17:08 34.521333 -118.269203 52 17098ft 330kts
17-Aug-20 17:09 34.592580 -118.197306 39 17959ft 337kts
17-Aug-20 17:10 34.664920 -118.124668 57 18735ft 338kts
17-Aug-20 17:11 34.690214 -118.014908 77 19446ft 339kts
17-Aug-20 17:12 34.700869 -117.900618 85 20079ft 342kts
17-Aug-20 17:13 34.709971 -117.785435 86 20723ft 342kts
17-Aug-20 17:14 34.717953 -117.670493 86 21477ft 341kts
17-Aug-20 17:15 34.726099 -117.555811 86 22184ft 341kts
17-Aug-20 17:16 34.734544 -117.440277 84 22755ft 345kts
17-Aug-20 17:17 34.766519 -117.329403 71 23092ft 348kts
17-Aug-20 17:18 34.793492 -117.216121 76 23072ft 351kts
17-Aug-20 17:19 34.826146 -117.102805 71 23032ft 356kts
17-Aug-20 17:20 34.859828 -116.989596 71 23002ft 357kts
17-Aug-20 17:21 34.892804 -116.875152 71 22994ft 358kts
17-Aug-20 17:22 34.925556 -116.761023 71 22976ft 357kts
17-Aug-20 17:23 34.965110 -116.650561 54 22977ft 361kts
17-Aug-20 17:24 35.025927 -116.552407 54 22991ft 365kts
17-Aug-20 17:25 35.087307 -116.453342 53 23020ft 366kts
17-Aug-20 17:26 35.149223 -116.353442 53 22493ft 374kts
17-Aug-20 17:27 35.209099 -116.257152 54 20684ft 354kts
17-Aug-20 17:28 35.267685 -116.163159 54 18880ft 343kts
17-Aug-20 17:29 35.327051 -116.073784 46 17069ft 335kts
17-Aug-20 17:30 35.392345 -115.994981 46 15266ft 326kts
17-Aug-20 17:31 35.455744 -115.918549 46 13467ft 317kts
17-Aug-20 17:32 35.518054 -115.843488 46 13072ft 315kts
17-Aug-20 17:33 35.583193 -115.771454 40 13077ft 316kts
17-Aug-20 17:34 35.648229 -115.699573 46 13083ft 315kts
17-Aug-20 17:35 35.710587 -115.624290 45 13085ft 315kts
17-Aug-20 17:36 35.773510 -115.548816 41 12718ft 322kts
17-Aug-20 17:37 35.839704 -115.481657 40 10811ft 302kts
17-Aug-20 17:38 35.902990 -115.416410 40 8901ft 292kts
17-Aug-20 17:39 35.963858 -115.352165 40 6991ft 285kts
17-Aug-20 17:40 36.022568 -115.288773 39 5158ft 277kts
17-Aug-20 17:41 36.081427 -115.224139 41 5063ft 288kts
17-Aug-20 17:42 36.150767 -115.176893 21 5042ft 288kts
17-Aug-20 17:43 36.204494 -115.120721 99 5020ft 238kts
17-Aug-20 17:44 36.178529 -115.055367 169 3896ft 204kts
17-Aug-20 17:45 36.128784 -115.051326 170 4932ft 188kts
17-Aug-20 17:46 36.080617 -115.057677 214 4866ft 177kts
17-Aug-20 17:47 36.056266 -115.100951 259 4850ft 141kts
17-Aug-20 17:48 36.073087 -115.146291 311 4555ft 157kts
17-Aug-20 17:49 36.108224 -115.185988 317 3852ft 189kts
17-Aug-20 17:50 36.159332 -115.182425 21 3337ft 186kts
17-Aug-20 17:51 36.173610 -115.135844 117 3323ft 166kts
17-Aug-20 17:52 36.135705 -115.136135 198 3161ft 133kts
17-Aug-20 17:53 36.103182 -115.154182 206 2283ft 123kts
17-Aug-20 17:54 36.083802 -115.166633 228 2151ft 0kts
17-Aug-20 17:55 36.082571 -115.168241 241 2160ft 16kts
17-Aug-20 17:57 36.080975 -115.170890 251 2168ft 0kts
17-Aug-20 17:58 36.080975 -115.170890 251 2168ft 0kts
17-Aug-20 17:59 36.080975 -115.170890 251 2168ft 0kts

Navigation Log

Ident Type
Flight plan parsing failed, navigation log unavailable